Ride Results

Pomonal (07-09-2008)
Ride distance: 88.0 km

Outcomes - Pomonal (07-09-2008)
Division No. of Entries Retired / DNE Completed Withdrawn Ineligible V/O Percentage Completed
HW 9 - 7 - - 2 77.78%
MW 22 - 20 - - 2 90.91%
LW 13 - 13 - - - 100.00%
JN 7 - 6 - - 1 85.71%
Totals 51 - 46 - - 5 90.20%
Results - Pomonal (07-09-2008)
No. Rider Horse Place Time Leg Speeds Total
Km/Hr
H/R bpm
Heavyweight
903 Bill Verspaandonk Highland View Darrah 1 (BC) 6:23:00 13.8, 13.6 13.79 30, 44, 46 (Avg:45)
901 Jake Verspaandonk Highland View Beau 1 6:23:00 13.8, 13.6 13.79 40, 44, 56 (Avg:50)
58 Dianne Tobin Dowling Mourad 3 6:31:00 14.4, 12.6 13.50 34, 42, 49 (Avg:45)
46 Nigel Anderson Kintamani Kebir 4 8:52:00 11.4, 8.7 9.92 31, 43, 46 (Avg:44)
4 Jennifer Green Reym Havana 4 8:52:00 11.4, 8.7 9.92 40, 47, 56 (Avg:51)
115 Rod Mills Avondale Jay 6 9:11:00 10.0, 9.1 9.58 42, 51, 60 (Avg:55)
82 Jarrod Robinson Tashani Rattle & Hum 6 9:11:00 10.0, 9.1 9.58 37, 40, 48 (Avg:44)
902 Paula Van Eck Kentonvale Shazam Heart Rate L2 0:00:00 14.0, 10.7 - 31, 44, 70 (Avg:57)
904 Tony Van Eck Tunamara Soumra Lame L2 0:00:00 14.0, 11.1 - 40, 51, 58 (Avg:54)
Middleweight
42 Hans Peuker Marybank Celia 1 (BC) 5:06:00 18.9, 15.8 17.25 30, 42, 40 (Avg:41)
905 Kimberley Measham Krave City Limit 2 5:12:00 17.2, 16.6 16.92 32, 42, 57 (Avg:49)
23 Brittnee Smith Timbertop Adonis 2 5:12:00 17.2, 16.6 16.92 30, 43, 46 (Avg:44)
142 Jan Scholes Gayland Mariah 4 5:33:00 15.9, 15.7 15.86 30, 41, 48 (Avg:44)
84 Kristie Taprell Tierview Maverick 5 5:38:00 15.6, 15.6 15.62 37, 53, 51 (Avg:52)
15 Meg Wade Castlebar Topaz 5 5:38:00 15.6, 15.6 15.62 34, 50, 48 (Avg:49)
13 Linda Tanian Castlebar Moonlight 7 5:39:00 15.6, 15.5 15.58 34, 46, 45 (Avg:45)
89 Sheryl Herbert Krishlah Maleeka 8 6:00:00 17.5, 12.5 14.67 35, 44, 55 (Avg:49)
45 Andrea Arranga Nurelee Tamaar 9 6:30:00 14.6, 12.5 13.54 34, 41, 56 (Avg:48)
130 Jennifer Carland Musical Gully Tenor 9 6:30:00 14.6, 12.5 13.54 36, 44, 47 (Avg:45)
51 Jim Maffett Min The Third 9 6:30:00 14.7, 12.5 13.54 34, 48, 46 (Avg:47)
900 Dianne Leehane Shah 12 6:41:00 13.6, 12.7 13.17 31, 37, 46 (Avg:41)
56 Wendy Bootle Blue Bopp 13 6:49:00 13.8, 12.0 12.91 33, 45, 57 (Avg:51)
69 Sue Cavill Koonwarra Kavalier 13 6:49:00 12.3, 13.5 12.91 34, 41, 49 (Avg:45)
308 Melissa Cawthan Rothlynne Hijacker 15 7:07:00 12.5, 12.1 12.37 32, 39, 45 (Avg:42)
858 Trish VanDonk Tonki Dee Boo Sid 15 7:07:00 12.8, 11.8 12.37 39, 43, 45 (Avg:44)
859 Tabitha Verspaandonk Monkhani Lodge Cabir 15 7:07:00 12.8, 11.8 12.37 37, 42, 46 (Avg:44)
909 Jil Bourton Royal Rythma 18 7:14:00 12.3, 11.9 12.17 46, 36, 46 (Avg:41)
100 Fay Bushby Pyrenees Phenomenon 19 7:15:00 12.3, 11.9 12.14 30, 37, 47 (Avg:42)
60 Leanne Wyllie Dunbraeton Farah 20 7:23:00 12.3, 11.5 11.92 31, 40, 54 (Avg:47)
181 Sharee Court Just Kira Lame L2 0:00:00 14.4, 85.1 - 34, 47, 48 (Avg:47)
870 Zoe Gardner Magic Glenn Jack the Lad Lame L2 0:00:00 12.6, 175.9 - 42, 48, 52 (Avg:50)
Lightweight
906 Jessica Aistrope Sandine Bantry 1 (BC) 5:06:00 17.8, 16.7 17.25 38, 48, 38 (Avg:43)
103 Jess Welsh Highland View Stockman 1 5:06:00 17.2, 17.2 17.25 34, 42, 52 (Avg:47)
91 Kim Noble Roheryn Park Khaleef 3 5:08:00 17.9, 16.3 17.14 32, 39, 47 (Avg:43)
49 Jessica Remfry Ennerdale Meccano 4 6:00:00 17.5, 12.5 14.67 30, 36, 42 (Avg:39)
126 Wendy Riha Magic Glenn Venture 5 6:37:00 13.0, 13.6 13.30 40, 35, 44 (Avg:39)
183 Nicky Robinson Castlebar Caro 6 6:38:00 13.0, 13.5 13.27 31, 45, 40 (Avg:42)
895 Brianna Bainger Magic Glenn Kyalite 7 6:54:00 12.6, 12.8 12.75 42, 40, 48 (Avg:44)
180 Amily Daw Magic Glenn Womac 7 6:54:00 12.6, 12.8 12.75 57, 50, 48 (Avg:49)
203 Charlotte Plews Edilia The Sheik 9 7:07:00 12.5, 12.1 12.37 28, 39, 42 (Avg:40)
208 Janeen Smith Taylorsglen Osca 9 7:07:00 12.5, 12.1 12.37 36, 35, 48 (Avg:41)
908 Cheryl Bullock Diara Little Jem 11 7:14:00 12.3, 11.9 12.17 47, 38, 54 (Avg:46)
61 Lois Sharam Musical Gully Carousel 12 7:23:00 12.3, 11.5 11.92 38, 34, 44 (Avg:39)
11 Rohan Stanes Shuja Bint Melika 13 8:52:00 11.4, 8.7 9.92 31, 36, 46 (Avg:41)
Junior
102 Jesse McKinnon Highland View Fly 1 (BC) 4:44:00 19.1, 18.0 18.59 35, 50, 53 (Avg:51)
90 Samantha Noble Springridge Bungendore 2 5:08:00 17.9, 16.3 17.14 29, 38, 42 (Avg:40)
140 Samantha Cubbin Tiawarra Ramy 3 5:33:00 15.9, 15.7 15.86 35, 43, 47 (Avg:45)
910 Nikita Verspaandonk Wally 4 6:47:00 12.8, 13.0 12.97 37, 39, 49 (Avg:44)
855 Phoebe Gardner Windradyne Centrefold 5 6:54:00 12.6, 12.8 12.75 32, 45, 46 (Avg:45)
52 Nadine Harte Mullungdung Flora 6 7:07:00 12.8, 11.8 12.37 40, 40, 46 (Avg:43)
907 Zeke Verspaandonk Musical Gully Rhapsody Lame L2 0:00:00 12.8, 12.0 - 39, 42, 52 (Avg:47)